Latest Weather Observations for Leigh Creek

IDS60801

Issued at 10:01 am CDT Monday 8 February 2016 (issued every 30 minutes, with the page automatically refreshed every 10 minutes)

About weather observations | Map of weather stations | Latest weather observations for SA | Other Formats
Station Details ID: 017110 Name: LEIGH CREEK AIRPORT Lat: -30.60 Lon: 138.42 Height: 258.8 m
Data from the previous 72 hours. | See also: Recent months at Leigh Creek
Date/Time
CDT
Temp
°C
App
Temp
°C
Dew
Point
Rel
Hum
%
Delta-T
°C
Wind Press
QNH
hPa
Press
MSL
hPa
Rain
since 9 am
mm
Dir
 
Spd
km/h
Gust
km/h
Spd
kts
Gust
kts
08/10:00am 32.8 26.1 8.3 22 13.8 ESE 33 43 18 23 1018.4 1016.8 0.0
08/09:30am 32.1 26.4 8.4 23 13.3 ESE 28 41 15 22 1018.5 1016.9 0.0
08/09:00am 30.6 25.2 9.5 27 12.0 ESE 28 35 15 19 1018.4 1016.8 0.0
08/08:30am 29.2 25.0 9.9 30 11.0 ESE 22 30 12 16 1018.4 1016.8 0.0
08/08:00am 27.5 24.3 9.8 33 10.0 ESE 17 24 9 13 1018.2 1016.6 0.0
08/07:30am 26.4 23.8 9.3 34 9.5 SE 13 20 7 11 1018.0 1016.4 0.0
08/07:00am 25.4 22.7 8.8 35 9.1 SE 13 22 7 12 1017.8 1016.2 0.0
08/06:30am 25.3 22.5 8.7 35 9.1 SE 13 19 7 10 1017.6 1016.0 0.0
08/06:00am 25.7 22.3 9.1 35 9.1 ESE 17 24 9 13 1017.3 1015.7 0.0
08/05:30am 24.1 22.4 9.7 40 7.9 SSE 9 15 5 8 1017.3 1015.7 0.0
08/05:00am 24.8 23.4 9.5 38 8.5 SSE 7 11 4 6 1016.9 1015.3 0.0
08/04:30am 25.1 23.3 9.4 37 8.7 SSE 9 17 5 9 1016.8 1015.2 0.0
08/04:00am 24.1 22.6 10.4 42 7.7 S 9 11 5 6 1016.7 1015.1 0.0
08/03:30am 24.4 22.8 11.7 45 7.3 S 11 13 6 7 1016.7 1015.1 0.0
08/03:00am 25.3 22.8 12.2 44 7.6 SSW 17 20 9 11 1016.7 1015.1 0.0
08/02:30am 25.5 23.2 11.7 42 7.9 SSW 15 17 8 9 1016.6 1015.0 0.0
08/02:00am 26.1 23.7 11.5 40 8.4 SSW 15 19 8 10 1016.7 1015.1 0.0
08/01:30am 26.6 23.5 10.3 36 9.2 SSW 17 20 9 11 1016.8 1015.2 0.0
08/01:00am 26.9 23.3 8.4 31 10.1 SSW 17 20 9 11 1016.9 1015.3 0.0
08/12:30am 27.6 23.8 7.5 28 10.9 SSW 17 20 9 11 1016.9 1015.3 0.0
08/12:00am 28.1 24.1 6.8 26 11.4 SSW 17 20 9 11 1016.8 1015.2 0.0
 
Date/Time
CDT
Temp
°C
App
Temp
°C
Dew
Point
Rel
Hum
%
Delta-T
°C
Wind Press
QNH
hPa
Press
MSL
hPa
Rain
since 9 am
mm
Dir
 
Spd
km/h
Gust
km/h
Spd
kts
Gust
kts
07/11:30pm 28.7 24.2 6.1 24 12.0 SSW 19 26 10 14 1016.8 1015.2 0.0
07/11:00pm 29.1 24.5 6.5 24 12.1 SSW 20 24 11 13 1016.4 1014.8 0.0
07/10:30pm 29.8 24.3 5.8 22 12.8 SW 24 30 13 16 1016.1 1014.5 0.0
07/10:00pm 30.6 24.6 5.1 20 13.5 SSW 26 35 14 19 1015.8 1014.2 0.0
07/09:30pm 31.4 25.0 5.0 19 14.0 SSW 28 39 15 21 1015.4 1013.8 0.0
07/09:00pm 32.3 24.9 5.0 18 14.5 SSW 33 43 18 23 1015.0 1013.4 0.0
07/08:30pm 33.1 26.8 5.6 18 14.9 SSW 28 44 15 24 1014.7 1013.1 0.0
07/08:24pm 33.4 28.5 5.0 17 15.2 S 20 44 11 24 1014.4 1012.8 0.0
07/08:00pm 34.3 30.5 4.0 15 16.1 S 13 26 7 14 1014.1 1012.5 0.0
07/07:30pm 35.5 31.5 2.9 13 17.1 SE 13 22 7 12 1013.8 1012.2 0.0
07/07:00pm 36.1 30.9 3.3 13 17.4 SE 20 32 11 17 1013.4 1011.8 0.0
07/06:30pm 36.4 31.8 3.6 13 17.5 SE 17 30 9 16 1013.1 1011.5 0.0
07/06:00pm 36.9 31.8 4.0 13 17.7 S 20 30 11 16 1013.0 1011.3 0.0
07/05:41pm 37.4 32.0 4.4 13 17.9 ESE 22 48 12 26 1012.0 1010.4 0.0
07/05:30pm 36.9 32.9 2.8 12 18.0 ESE 13 26 7 14 1012.9 1011.2 0.0
07/05:00pm 37.4 32.1 2.0 11 18.5 SSE 19 30 10 16 1013.0 1011.3 0.0
07/04:30pm 37.0 32.6 2.9 12 18.0 SSW 15 26 8 14 1013.2 1011.6 0.0
07/04:00pm 36.8 31.9 3.9 13 17.7 SE 19 32 10 17 1013.5 1011.9 0.0
07/03:30pm 36.4 32.0 2.5 12 17.8 SSE 15 20 8 11 1013.8 1012.2 0.0
07/03:00pm 36.4 32.5 3.6 13 17.5 S 13 28 7 15 1014.1 1012.5 0.0
07/02:30pm 36.7 32.5 3.8 13 17.6 SSE 15 28 8 15 1014.3 1012.7 0.0
07/02:00pm 35.8 31.8 5.1 15 16.7 S 15 30 8 16 1014.5 1012.9 0.0
07/01:30pm 35.3 33.4 7.4 18 15.7 SSE 7 24 4 13 1014.9 1013.3 0.0
07/01:00pm 33.6 32.1 9.0 22 14.1 SE 7 17 4 9 1015.3 1013.7 0.0
07/12:30pm 33.4 31.4 8.8 22 14.0 E 9 15 5 8 1015.6 1014.0 0.0
07/12:00pm 33.0 31.3 9.7 24 13.4 SSE 9 24 5 13 1015.9 1014.3 0.0
07/11:30am 32.3 30.4 10.4 26 12.7 SW 11 17 6 9 1016.1 1014.5 0.0
07/11:00am 31.0 30.6 14.2 36 10.3 NW 9 13 5 7 1016.2 1014.6 0.0
07/10:30am 30.6 30.6 15.1 39 9.6 NNW 9 13 5 7 1016.2 1014.6 0.0
07/10:00am 29.2 29.4 15.7 44 8.4 N 9 11 5 6 1016.1 1014.5 0.0
07/09:30am 28.7 28.8 16.6 48 7.6 N 11 15 6 8 1016.1 1014.5 0.0
07/09:00am 27.1 27.1 17.3 55 6.2 N 13 19 7 10 1015.9 1014.3 0.0
07/08:30am 26.2 26.1 17.0 57 5.8 N 13 17 7 9 1015.8 1014.2 0.0
07/08:00am 24.8 26.6 15.4 56 5.7 CALM 0 0 0 0 1015.7 1014.1 0.0
07/07:30am 23.2 24.3 13.4 54 5.7 CALM 0 0 0 0 1015.3 1013.7 0.0
07/07:00am 22.1 21.0 10.6 48 6.4 N 7 9 4 5 1015.1 1013.5 0.0
07/06:30am 22.1 19.7 8.6 42 7.2 NNW 11 13 6 7 1014.7 1013.1 0.0
07/06:00am 22.3 18.8 5.3 33 8.6 NNW 13 15 7 8 1014.5 1012.9 0.0
07/05:30am 24.6 20.3 5.4 29 9.9 N 17 26 9 14 1014.0 1012.4 0.0
07/05:00am 25.2 21.2 4.9 27 10.4 SE 15 19 8 10 1013.3 1011.7 0.0
07/04:30am 25.7 21.7 4.8 26 10.7 SE 15 20 8 11 1012.9 1011.2 0.0
07/04:00am 26.0 22.3 4.5 25 11.0 SE 13 20 7 11 1012.7 1011.0 0.0
07/03:30am 25.7 22.3 4.2 25 10.9 SE 11 20 6 11 1012.6 1010.9 0.0
07/03:00am 25.8 22.8 4.3 25 10.9 SE 9 13 5 7 1012.5 1010.8 0.0
07/02:30am 25.7 22.3 4.2 25 10.9 SE 11 17 6 9 1012.6 1010.9 0.0
07/02:00am 23.4 20.4 3.9 28 9.7 ESE 9 11 5 6 1012.8 1011.1 0.0
07/01:30am 23.4 20.3 3.4 27 9.8 ESE 9 13 5 7 1012.8 1011.1 0.0
07/01:00am 23.9 19.9 2.7 25 10.3 ESE 13 15 7 8 1012.8 1011.1 0.0
07/12:30am 24.7 20.7 2.8 24 10.7 ESE 13 17 7 9 1012.9 1011.2 0.0
07/12:00am 25.9 21.2 3.2 23 11.3 ESE 17 20 9 11 1012.9 1011.2 0.0
 
Date/Time
CDT
Temp
°C
App
Temp
°C
Dew
Point
Rel
Hum
%
Delta-T
°C
Wind Press
QNH
hPa
Press
MSL
hPa
Rain
since 9 am
mm
Dir
 
Spd
km/h
Gust
km/h
Spd
kts
Gust
kts
06/11:30pm 26.2 22.3 3.5 23 11.4 ESE 13 15 7 8 1013.0 1011.3 0.0
06/11:00pm 26.7 22.4 3.2 22 11.7 E 15 17 8 9 1012.9 1011.2 0.0
06/10:30pm 28.2 23.9 3.1 20 12.7 ESE 15 17 8 9 1012.6 1010.9 0.0
06/10:00pm 30.0 25.7 3.1 18 13.7 SE 15 19 8 10 1012.2 1010.6 0.0
06/09:30pm 30.8 27.2 3.0 17 14.2 SE 11 19 6 10 1011.9 1010.3 0.0
06/09:00pm 31.4 27.9 3.4 17 14.5 SE 11 17 6 9 1011.4 1009.8 0.0
06/08:30pm 32.1 29.1 4.0 17 14.7 SE 9 17 5 9 1011.1 1009.5 0.0
06/08:00pm 33.1 28.8 3.0 15 15.6 SE 15 20 8 11 1010.7 1009.1 0.0
06/07:30pm 34.1 30.8 4.7 16 15.8 SE 11 19 6 10 1010.3 1008.7 0.0
06/07:00pm 34.7 31.0 4.3 15 16.2 SSE 13 26 7 14 1009.9 1008.3 0.0
06/06:30pm 35.3 31.5 3.8 14 16.8 S 13 20 7 11 1009.6 1007.9 0.0
06/06:00pm 35.8 31.8 3.1 13 17.3 SE 13 32 7 17 1009.4 1007.7 0.0
06/05:30pm 35.3 30.3 1.6 12 17.3 S 17 28 9 15 1009.3 1007.6 0.0
06/05:00pm 35.7 31.2 1.9 12 17.5 SSE 15 28 8 15 1009.3 1007.6 0.0
06/04:30pm 36.1 30.8 -0.3 10 18.2 ESE 17 35 9 19 1009.4 1007.7 0.0
06/04:00pm 36.6 31.8 0.1 10 18.4 SSE 15 22 8 12 1009.7 1008.1 0.0
06/03:30pm 35.4 31.8 0.5 11 17.6 S 9 17 5 9 1010.1 1008.5 0.0
06/03:00pm 35.4 30.6 0.5 11 17.6 ESE 15 30 8 16 1010.5 1008.9 0.0
06/02:30pm 35.2 31.2 2.6 13 17.0 SSE 13 20 7 11 1010.8 1009.2 0.0
06/02:00pm 34.6 31.1 1.1 12 17.0 S 9 19 5 10 1011.2 1009.6 0.0
06/01:30pm 34.9 30.8 2.4 13 16.9 SE 13 20 7 11 1011.5 1009.9 0.0
06/01:00pm 34.2 30.4 3.9 15 16.0 ESE 13 22 7 12 1011.6 1010.0 0.0
06/12:30pm 33.6 30.6 4.3 16 15.6 ESE 9 24 5 13 1012.0 1010.4 0.0
06/12:00pm 33.0 28.6 4.7 17 15.1 ENE 17 30 9 16 1012.2 1010.6 0.0
06/11:30am 33.1 27.8 4.8 17 15.1 E 22 37 12 20 1012.6 1010.9 0.0
06/11:00am 32.0 25.7 3.9 17 14.7 E 26 37 14 20 1012.7 1011.0 0.0
06/10:30am 31.9 25.4 4.6 18 14.4 E 28 39 15 21 1012.7 1011.0 0.0
06/10:00am 31.1 26.0 4.0 18 14.1 SE 20 33 11 18 1012.7 1011.0 0.0
06/09:30am 30.5 25.8 5.0 20 13.5 SE 19 32 10 17 1012.5 1010.8 0.0
06/09:00am 29.4 24.1 4.8 21 12.9 ESE 22 32 12 17 1012.3 1010.7 0.0
06/08:30am 27.5 23.2 5.1 24 11.6 SE 17 30 9 16 1012.1 1010.5 0.0
06/08:00am 25.7 20.7 4.8 26 10.7 ESE 20 26 11 14 1011.9 1010.3 0.0
06/07:30am 24.6 19.6 4.4 27 10.2 SE 20 30 11 16 1011.8 1010.2 0.0
06/07:00am 23.0 20.1 4.5 30 9.2 SSE 9 13 5 7 1011.6 1010.0 0.0
06/06:30am 22.0 19.5 4.6 32 8.7 S 7 13 4 7 1011.3 1009.7 0.0
06/06:00am 22.1 19.2 4.7 32 8.7 S 9 11 5 6 1011.0 1009.4 0.0
06/05:30am 22.3 19.8 4.8 32 8.8 S 7 9 4 5 1010.7 1009.1 0.0
06/05:00am 22.6 20.6 4.2 30 9.1 S 4 13 2 7 1010.6 1009.0 0.0
06/04:30am 23.4 19.8 4.9 30 9.3 S 13 17 7 9 1010.5 1008.9 0.0
06/04:00am 23.1 19.2 5.5 32 9.0 S 15 17 8 9 1010.5 1008.9 0.0
06/03:30am 24.2 21.4 5.1 29 9.7 S 9 13 5 7 1010.7 1009.1 0.0
06/03:00am 24.6 21.9 5.4 29 9.9 S 9 15 5 8 1010.7 1009.1 0.0
06/02:30am 25.0 22.3 5.7 29 10.0 S 9 13 5 7 1010.9 1009.3 0.0
06/02:00am 25.4 22.4 6.1 29 10.1 S 11 15 6 8 1011.0 1009.4 0.0
06/01:30am 25.6 22.9 5.8 28 10.3 S 9 13 5 7 1011.2 1009.6 0.0
06/01:00am 25.6 22.9 5.8 28 10.3 S 9 13 5 7 1011.4 1009.8 0.0
06/12:30am 25.7 23.4 5.8 28 10.4 S 7 9 4 5 1011.4 1009.8 0.0
06/12:00am 26.8 24.2 6.2 27 10.9 SSE 9 15 5 8 1011.4 1009.8 0.0
 
Date/Time
CDT
Temp
°C
App
Temp
°C
Dew
Point
Rel
Hum
%
Delta-T
°C
Wind Press
QNH
hPa
Press
MSL
hPa
Rain
since 9 am
mm
Dir
 
Spd
km/h
Gust
km/h
Spd
kts
Gust
kts
05/11:30pm 27.1 24.7 7.0 28 10.8 SSE 9 11 5 6 1011.6 1010.0 0.0
05/11:00pm 27.4 25.1 7.3 28 10.8 SSE 9 13 5 7 1011.6 1010.0 0.0
05/10:30pm 27.9 25.9 7.2 27 11.2 SSE 7 11 4 6 1011.6 1010.0 0.0
05/10:00pm 28.3 26.0 7.5 27 11.3 SSE 9 11 5 6 1011.4 1009.8 0.0
05/09:30pm 28.9 27.0 7.5 26 11.7 SSE 7 11 4 6 1011.2 1009.6 0.0
05/09:00pm 29.5 27.1 6.8 24 12.3 SSE 9 19 5 10 1011.1 1009.5 0.0
05/08:30pm 30.1 26.9 6.7 23 12.7 SE 13 20 7 11 1011.1 1009.5 0.0
05/08:00pm 30.9 26.8 6.0 21 13.4 SE 17 28 9 15 1010.7 1009.1 0.0
05/07:30pm 32.0 27.4 5.5 19 14.2 SSE 19 30 10 16 1010.2 1008.6 0.0
05/07:00pm 32.7 28.0 6.1 19 14.5 SE 20 33 11 18 1009.9 1008.3 0.0
05/06:30pm 33.0 28.7 7.1 20 14.4 SE 19 32 10 17 1009.6 1007.9 0.0
05/06:00pm 32.7 28.5 8.2 22 13.8 SSE 20 33 11 18 1009.4 1007.7 0.0
05/05:30pm 33.5 29.5 8.2 21 14.3 SE 19 30 10 16 1009.6 1007.9 0.0
05/05:00pm 33.4 29.7 8.1 21 14.3 SE 17 30 9 16 1009.8 1008.2 0.0
05/04:30pm 32.9 30.2 9.0 23 13.6 SE 13 28 7 15 1010.0 1008.4 0.0
05/04:00pm 32.6 28.7 8.8 23 13.5 SSE 19 35 10 19 1010.4 1008.8 0.0
05/03:30pm 33.5 30.0 10.2 24 13.6 SE 19 28 10 15 1010.7 1009.1 0.0
05/03:00pm 32.7 29.0 10.1 25 13.1 ESE 20 32 11 17 1011.0 1009.4 0.0
05/02:30pm 33.0 28.4 10.9 26 13.0 ESE 26 41 14 22 1011.4 1009.8 0.0
05/02:00pm 33.3 30.1 11.8 27 12.8 ESE 20 39 11 21 1011.5 1009.9 0.0
05/01:30pm 33.3 30.1 11.8 27 12.8 ESE 20 30 11 16 1011.7 1010.1 0.0
05/01:00pm 32.9 29.7 11.4 27 12.7 SE 19 30 10 16 1012.0 1010.4 0.0
05/12:30pm 32.7 29.5 11.3 27 12.6 ESE 19 33 10 18 1012.3 1010.7 0.0
05/12:00pm 32.7 28.7 11.8 28 12.4 ESE 24 33 13 18 1012.7 1011.0 0.0
05/11:30am 30.6 25.6 11.1 30 11.4 ESE 28 41 15 22 1012.8 1011.1 0.0
05/11:00am 29.6 22.3 11.6 33 10.5 ESE 41 54 22 29 1012.5 1010.8 0.0
05/10:30am 28.9 22.8 10.6 32 10.5 ESE 33 46 18 25 1013.0 1011.3 0.0

Other Formats:

Comma delimited format used in spreadsheet applications
http://www.bom.gov.au/fwo/IDS60801/IDS60801.94674.axf

JavaScript Object Notation format (JSON) in row-major order
http://www.bom.gov.au/fwo/IDS60801/IDS60801.94674.json